Time;durP1;ratioP1;P1;durP2;ratioP2;P2;SDS_P1;SDS_P2;PMS_P1;PMS_P2;Temp;Humidity;BMP_temperature;BMP_pressure;BME280_temperature;BME280_humidity;BME280_pressure;Samples;Min_cycle;Max_cycle;Signal;HPM_P1;HPM_P2
2023/12/18 00:00:13;;;;;;;20.88;10.15;;;8.50;99.90;;;;;;5051000;28;20499;-90
2023/12/18 00:02:39;;;;;;;37.20;13.10;;;8.50;99.90;;;;;;5039167;28;20045;-90
2023/12/18 00:05:05;;;;;;;25.73;11.85;;;8.50;99.90;;;;;;5035745;28;20039;-89
2023/12/18 00:07:30;;;;;;;25.48;11.70;;;8.50;99.90;;;;;;5036565;28;20250;-89
2023/12/18 00:09:58;;;;;;;24.42;10.30;;;8.60;99.90;;;;;;5022596;28;20044;-90
2023/12/18 00:12:24;;;;;;;22.40;10.40;;;8.50;99.90;;;;;;5016506;28;20036;-88
2023/12/18 00:14:50;;;;;;;26.90;10.65;;;8.50;99.90;;;;;;5015742;28;20637;-88
2023/12/18 00:17:15;;;;;;;27.27;10.32;;;8.60;99.90;;;;;;5051818;28;20083;-89
2023/12/18 00:19:41;;;;;;;25.17;10.90;;;8.60;99.90;;;;;;5017530;28;20099;-89
2023/12/18 00:22:07;;;;;;;25.50;10.13;;;8.50;99.90;;;;;;5040166;28;20036;-90
2023/12/18 00:24:32;;;;;;;24.35;10.45;;;8.40;99.90;;;;;;5033329;28;20435;-90
2023/12/18 00:26:58;;;;;;;22.52;11.02;;;8.50;99.90;;;;;;5023515;28;20117;-90
2023/12/18 00:29:23;;;;;;;21.50;10.57;;;8.50;99.90;;;;;;5026445;28;20048;-90
2023/12/18 00:31:49;;;;;;;25.20;10.57;;;8.60;99.90;;;;;;5039748;28;20080;-90
2023/12/18 00:34:18;;;;;;;27.77;10.63;;;8.50;99.90;;;;;;5037695;28;20129;-82
2023/12/18 00:37:31;;;;;;;23.48;10.52;;;8.50;99.90;;;;;;5047483;28;20131;-89
2023/12/18 00:39:57;;;;;;;20.02;11.32;;;8.50;99.90;;;;;;5045482;28;20035;-82
2023/12/18 00:42:39;;;;;;;23.73;11.05;;;8.50;99.90;;;;;;5036263;28;20096;-89
2023/12/18 00:45:05;;;;;;;21.80;10.93;;;8.40;99.90;;;;;;5029035;28;20183;-89
2023/12/18 00:47:31;;;;;;;22.02;9.95;;;8.50;99.90;;;;;;5015218;28;20040;-89
2023/12/18 00:49:57;;;;;;;29.15;10.57;;;8.50;99.90;;;;;;5020565;28;20404;-89
2023/12/18 00:52:22;;;;;;;24.55;11.07;;;8.60;99.90;;;;;;5021436;28;20441;-88
2023/12/18 00:54:48;;;;;;;20.85;11.57;;;8.50;99.90;;;;;;5037255;28;20049;-89
2023/12/18 00:57:14;;;;;;;23.20;9.85;;;8.60;99.90;;;;;;5023310;28;20036;-89
2023/12/18 00:59:39;;;;;;;24.77;11.02;;;8.60;99.90;;;;;;5021534;28;20037;-90
2023/12/18 01:02:05;;;;;;;24.48;10.00;;;8.40;99.90;;;;;;5048158;28;20045;-89
2023/12/18 01:04:31;;;;;;;20.50;9.90;;;8.60;99.90;;;;;;5020217;28;20075;-89
2023/12/18 01:06:56;;;;;;;25.95;10.25;;;8.60;99.90;;;;;;5027160;28;20427;-89
2023/12/18 01:09:22;;;;;;;21.95;9.93;;;8.50;99.90;;;;;;5018116;28;20036;-89
2023/12/18 01:11:49;;;;;;;22.88;9.50;;;8.50;99.90;;;;;;5018283;28;20110;-89
2023/12/18 01:14:15;;;;;;;22.58;9.93;;;8.50;99.90;;;;;;5016319;28;20476;-89
2023/12/18 01:16:40;;;;;;;23.70;10.20;;;8.60;99.90;;;;;;5030421;28;20041;-89
2023/12/18 01:19:06;;;;;;;26.95;11.07;;;8.50;99.90;;;;;;5011782;28;20037;-89
2023/12/18 01:21:31;;;;;;;20.40;10.20;;;8.70;99.90;;;;;;5025129;28;20055;-90
2023/12/18 01:23:57;;;;;;;22.45;9.30;;;8.60;99.90;;;;;;5047859;28;20040;-90
2023/12/18 01:26:23;;;;;;;20.38;8.85;;;8.60;99.90;;;;;;5017526;28;20036;-90
2023/12/18 01:28:48;;;;;;;22.20;9.25;;;8.60;99.90;;;;;;5011399;28;20056;-88
2023/12/18 01:31:22;;;;;;;18.63;8.00;;;8.60;99.90;;;;;;5021915;28;20057;-89
2023/12/18 01:33:48;;;;;;;20.60;9.50;;;8.70;99.90;;;;;;5036846;28;20250;-90
2023/12/18 01:36:14;;;;;;;24.17;8.85;;;8.80;99.90;;;;;;5034101;28;20045;-89
2023/12/18 01:38:39;;;;;;;21.98;7.88;;;8.70;99.90;;;;;;5035468;28;20044;-90
2023/12/18 01:41:05;;;;;;;18.05;7.97;;;8.70;99.90;;;;;;5026603;28;20040;-89
2023/12/18 01:43:30;;;;;;;16.58;7.68;;;8.80;99.90;;;;;;5020726;28;20048;-90
2023/12/18 01:45:59;;;;;;;19.95;6.60;;;8.70;99.90;;;;;;5026100;28;20132;-89
2023/12/18 01:48:26;;;;;;;17.33;7.20;;;8.90;99.90;;;;;;5027665;28;20052;-90
2023/12/18 01:50:54;;;;;;;24.05;7.97;;;8.80;99.90;;;;;;5028845;28;20124;-89
2023/12/18 01:53:25;;;;;;;19.85;7.32;;;8.70;99.90;;;;;;5043033;28;20045;-90
2023/12/18 01:55:51;;;;;;;20.70;7.18;;;8.80;99.90;;;;;;5040487;28;20048;-89
2023/12/18 01:58:18;;;;;;;17.33;7.75;;;8.80;99.90;;;;;;5038589;28;20037;-89
2023/12/18 02:00:45;;;;;;;15.02;7.28;;;8.80;99.90;;;;;;5039813;28;20095;-89
2023/12/18 02:03:10;;;;;;;17.55;7.30;;;8.80;99.90;;;;;;5023185;28;20395;-90
2023/12/18 02:05:37;;;;;;;17.52;6.45;;;8.80;99.90;;;;;;5027432;28;20048;-89
2023/12/18 02:08:04;;;;;;;26.00;7.25;;;8.90;99.90;;;;;;5022507;28;20396;-89
2023/12/18 02:10:31;;;;;;;14.85;6.82;;;8.80;99.90;;;;;;5043285;28;20401;-89
2023/12/18 02:12:57;;;;;;;19.23;7.03;;;8.90;99.90;;;;;;5025078;28;20048;-89
2023/12/18 02:15:22;;;;;;;16.58;6.72;;;8.90;99.90;;;;;;5034777;28;20041;-90
2023/12/18 02:17:48;;;;;;;18.95;7.38;;;8.90;99.90;;;;;;5021596;28;20028;-91
2023/12/18 02:20:14;;;;;;;16.15;6.65;;;8.90;99.90;;;;;;5028387;28;20072;-90
2023/12/18 02:22:46;;;;;;;19.73;7.18;;;8.90;99.90;;;;;;5031495;28;20041;-89
2023/12/18 02:25:12;;;;;;;18.75;7.13;;;8.90;99.90;;;;;;5049713;28;20037;-89
2023/12/18 02:27:38;;;;;;;17.02;6.18;;;8.90;99.90;;;;;;5023972;28;20449;-89
2023/12/18 02:30:05;;;;;;;17.35;6.47;;;8.80;99.90;;;;;;5024847;28;20046;-90
2023/12/18 02:32:30;;;;;;;19.73;7.80;;;8.90;99.90;;;;;;5044725;28;20672;-89
2023/12/18 02:34:56;;;;;;;20.10;6.80;;;8.90;99.90;;;;;;5028705;28;20049;-89
2023/12/18 02:37:23;;;;;;;18.08;6.30;;;8.90;99.90;;;;;;5040064;28;20626;-89
2023/12/18 02:39:49;;;;;;;23.90;7.18;;;8.90;99.90;;;;;;5040328;28;20723;-89
2023/12/18 02:42:14;;;;;;;22.08;7.20;;;8.90;99.90;;;;;;5044078;28;20052;-90
2023/12/18 02:44:40;;;;;;;20.10;6.65;;;8.90;99.90;;;;;;5038501;28;20045;-89
2023/12/18 02:47:06;;;;;;;19.05;6.70;;;8.80;99.90;;;;;;5044075;28;20056;-90
2023/12/18 02:49:32;;;;;;;20.95;6.72;;;8.80;99.90;;;;;;5037829;28;20045;-89
2023/12/18 02:51:57;;;;;;;21.88;7.03;;;8.80;99.90;;;;;;5037091;28;20052;-91
2023/12/18 02:54:23;;;;;;;16.58;6.90;;;8.90;99.90;;;;;;5018937;28;20246;-89
2023/12/18 02:56:49;;;;;;;14.98;6.43;;;8.80;99.90;;;;;;5025733;28;20458;-90
2023/12/18 02:59:14;;;;;;;19.48;7.07;;;8.90;99.90;;;;;;5024054;28;20104;-90
2023/12/18 03:01:40;;;;;;;19.70;6.05;;;8.90;99.90;;;;;;5021919;28;20195;-90
2023/12/18 03:04:05;;;;;;;24.00;6.70;;;8.90;99.90;;;;;;5023020;28;20063;-89
2023/12/18 03:06:34;;;;;;;21.52;7.05;;;8.80;99.90;;;;;;5037950;28;20530;-89
2023/12/18 03:09:00;;;;;;;16.30;6.57;;;8.90;99.90;;;;;;5040280;28;20041;-90
2023/12/18 03:11:26;;;;;;;18.25;7.00;;;8.80;99.90;;;;;;5039773;28;20076;-90
2023/12/18 03:13:51;;;;;;;16.17;6.85;;;8.80;99.90;;;;;;5036049;28;20044;-89
2023/12/18 03:16:17;;;;;;;16.95;6.30;;;8.80;99.90;;;;;;5019668;28;20098;-89
2023/12/18 03:18:43;;;;;;;16.63;7.45;;;9.00;99.90;;;;;;5037610;28;20045;-89
2023/12/18 03:21:11;;;;;;;18.92;6.43;;;9.00;99.90;;;;;;5018026;28;20479;-89
2023/12/18 03:23:37;;;;;;;18.65;6.57;;;8.90;99.90;;;;;;5025331;28;20113;-89
2023/12/18 03:26:03;;;;;;;21.13;6.38;;;8.90;99.90;;;;;;5028546;28;20086;-91
2023/12/18 03:28:29;;;;;;;16.70;6.47;;;9.00;99.90;;;;;;5030922;28;20068;-89
2023/12/18 03:30:55;;;;;;;21.23;7.05;;;9.00;99.90;;;;;;5037758;28;20061;-90
2023/12/18 03:33:20;;;;;;;20.70;7.63;;;9.00;99.90;;;;;;5019787;28;20082;-89
2023/12/18 03:35:46;;;;;;;21.17;8.10;;;8.90;99.90;;;;;;5022261;28;20047;-89
2023/12/18 03:38:12;;;;;;;24.00;9.77;;;8.80;99.90;;;;;;5021190;28;20086;-90
2023/12/18 03:40:38;;;;;;;17.17;9.77;;;8.80;99.90;;;;;;5022664;28;20044;-89
2023/12/18 03:43:04;;;;;;;18.27;9.30;;;8.70;99.90;;;;;;5025998;28;20048;-88
2023/12/18 03:45:30;;;;;;;23.70;11.13;;;8.60;99.90;;;;;;5019960;28;20060;-90
2023/12/18 03:47:56;;;;;;;23.58;11.15;;;8.60;99.90;;;;;;5034479;28;20091;-89
2023/12/18 03:50:22;;;;;;;22.85;10.95;;;8.60;99.90;;;;;;5036785;28;20041;-89
2023/12/18 03:52:47;;;;;;;25.73;11.50;;;8.60;99.90;;;;;;5022898;28;20476;-88
2023/12/18 03:55:13;;;;;;;27.30;11.82;;;8.50;99.90;;;;;;5026193;28;20055;-89
2023/12/18 03:57:39;;;;;;;23.30;10.80;;;8.50;99.90;;;;;;5020253;28;20045;-89
2023/12/18 04:00:06;;;;;;;24.80;11.27;;;8.50;99.90;;;;;;5041855;28;20051;-90
2023/12/18 04:02:32;;;;;;;25.08;11.80;;;8.50;99.90;;;;;;5021370;28;20033;-89
2023/12/18 04:04:58;;;;;;;27.50;12.35;;;8.60;99.90;;;;;;5024427;28;20044;-90
2023/12/18 04:07:23;;;;;;;23.73;12.88;;;8.40;99.90;;;;;;5017458;28;20307;-88
2023/12/18 04:09:49;;;;;;;26.02;12.70;;;8.40;99.90;;;;;;5018901;28;20045;-88
2023/12/18 04:12:15;;;;;;;30.52;13.05;;;8.50;99.90;;;;;;5037523;28;20363;-90
2023/12/18 04:14:42;;;;;;;27.35;12.13;;;8.50;99.90;;;;;;5040482;28;20040;-90
2023/12/18 04:17:08;;;;;;;24.42;12.68;;;8.60;99.90;;;;;;5037957;28;20026;-89
2023/12/18 04:19:34;;;;;;;27.40;12.90;;;8.60;99.90;;;;;;5025692;28;20063;-88
2023/12/18 04:22:00;;;;;;;29.00;13.15;;;8.50;99.90;;;;;;5022366;28;20065;-89
2023/12/18 04:24:25;;;;;;;27.15;12.65;;;8.50;99.90;;;;;;5023580;28;20476;-90
2023/12/18 04:26:51;;;;;;;27.35;12.85;;;8.40;99.90;;;;;;5031882;28;20048;-90
2023/12/18 04:29:17;;;;;;;22.70;12.30;;;8.40;99.90;;;;;;5023019;28;20156;-89
2023/12/18 04:31:43;;;;;;;22.98;12.68;;;8.60;99.90;;;;;;5020026;28;20057;-90
2023/12/18 04:34:09;;;;;;;25.55;12.77;;;8.50;99.90;;;;;;5022009;28;20041;-89
2023/12/18 04:36:39;;;;;;;28.58;12.55;;;8.60;99.90;;;;;;5025117;28;20039;-90
2023/12/18 04:39:05;;;;;;;29.58;12.88;;;8.50;99.90;;;;;;5025286;28;20122;-89
2023/12/18 04:41:31;;;;;;;23.35;12.15;;;8.50;99.90;;;;;;5021892;28;20789;-90
2023/12/18 04:43:56;;;;;;;23.92;11.60;;;8.60;99.90;;;;;;5038156;28;20227;-89
2023/12/18 04:46:22;;;;;;;25.58;11.90;;;8.60;99.90;;;;;;5036587;28;20079;-90
2023/12/18 04:48:48;;;;;;;23.38;12.02;;;8.60;99.90;;;;;;5021500;28;20085;-89
2023/12/18 04:51:14;;;;;;;27.60;12.02;;;8.70;99.90;;;;;;5037760;28;20543;-90
2023/12/18 04:53:40;;;;;;;30.33;12.35;;;8.60;99.90;;;;;;5033887;28;20055;-89
2023/12/18 04:56:06;;;;;;;27.00;12.00;;;8.70;99.90;;;;;;5037934;28;20071;-90
2023/12/18 04:58:35;;;;;;;27.35;12.57;;;8.50;99.90;;;;;;5019274;28;20032;-90
2023/12/18 05:01:04;;;;;;;21.75;12.10;;;8.70;99.90;;;;;;5053934;28;20172;-89
2023/12/18 05:03:30;;;;;;;21.98;11.80;;;8.70;99.90;;;;;;5029548;28;20049;-90
2023/12/18 05:05:56;;;;;;;24.30;12.52;;;8.70;99.90;;;;;;5019714;28;20433;-89
2023/12/18 05:08:21;;;;;;;25.55;11.70;;;8.70;99.90;;;;;;5021130;28;20037;-89
2023/12/18 05:10:47;;;;;;;21.77;11.85;;;8.70;99.90;;;;;;5022636;28;20473;-88
2023/12/18 05:13:13;;;;;;;23.10;11.05;;;8.70;99.90;;;;;;5043511;28;20449;-89
2023/12/18 05:15:38;;;;;;;22.75;12.68;;;8.60;99.90;;;;;;5032318;28;20514;-89
2023/12/18 05:18:07;;;;;;;25.23;11.95;;;8.60;99.90;;;;;;5017180;28;20036;-90
2023/12/18 05:20:33;;;;;;;22.65;12.15;;;8.70;99.90;;;;;;5021113;28;20047;-89
2023/12/18 05:23:02;;;;;;;31.38;13.00;;;8.60;99.90;;;;;;5023479;28;20037;-89
2023/12/18 05:25:27;;;;;;;27.83;12.10;;;8.50;99.90;;;;;;5035188;28;20037;-89
2023/12/18 05:27:53;;;;;;;19.83;11.23;;;8.60;99.90;;;;;;5023396;28;20408;-89
2023/12/18 05:30:19;;;;;;;25.63;12.65;;;8.60;99.90;;;;;;5049267;28;20108;-90
2023/12/18 05:32:44;;;;;;;27.23;12.68;;;8.70;99.90;;;;;;5038987;28;20041;-90
2023/12/18 05:35:10;;;;;;;29.05;12.00;;;8.60;99.90;;;;;;5037476;28;20126;-90
2023/12/18 05:37:36;;;;;;;25.42;12.43;;;8.70;99.90;;;;;;5034987;28;20045;-89
2023/12/18 05:40:01;;;;;;;24.63;12.40;;;8.70;99.90;;;;;;5041335;28;20125;-90
2023/12/18 05:42:27;;;;;;;25.38;11.32;;;8.60;99.90;;;;;;5022638;28;20041;-89
2023/12/18 05:44:53;;;;;;;26.58;12.35;;;8.50;99.90;;;;;;5022808;28;20123;-89
2023/12/18 05:47:19;;;;;;;21.58;12.38;;;8.70;99.90;;;;;;5024108;28;20037;-90
2023/12/18 05:49:44;;;;;;;23.15;11.82;;;8.70;99.90;;;;;;5020321;28;20045;-90
2023/12/18 05:52:10;;;;;;;25.35;12.43;;;8.70;99.90;;;;;;5052670;28;20081;-90
2023/12/18 05:54:37;;;;;;;23.13;11.73;;;8.70;99.90;;;;;;5018245;28;20072;-89
2023/12/18 05:57:03;;;;;;;25.60;12.63;;;8.70;99.90;;;;;;5034754;28;20045;-90
2023/12/18 05:59:29;;;;;;;22.60;12.00;;;8.60;99.90;;;;;;5034708;28;20483;-89
2023/12/18 06:01:55;;;;;;;25.10;11.90;;;8.70;99.90;;;;;;5019909;28;20088;-89
2023/12/18 06:04:21;;;;;;;30.85;12.82;;;8.70;99.90;;;;;;5019534;28;20045;-89
2023/12/18 06:06:47;;;;;;;21.20;11.23;;;8.70;99.90;;;;;;5022910;28;20419;-90
2023/12/18 06:09:13;;;;;;;23.13;12.20;;;8.80;99.90;;;;;;5017427;28;20112;-89
2023/12/18 06:11:39;;;;;;;22.52;12.40;;;8.70;99.90;;;;;;5022522;28;20802;-90
2023/12/18 06:14:05;;;;;;;24.90;11.75;;;8.60;99.90;;;;;;5050010;28;20166;-90
2023/12/18 06:16:30;;;;;;;25.65;11.75;;;8.70;99.90;;;;;;5051755;28;20038;-89
2023/12/18 06:18:59;;;;;;;20.25;11.55;;;8.80;99.90;;;;;;5015105;28;20051;-90
2023/12/18 06:21:24;;;;;;;18.35;11.05;;;8.70;99.90;;;;;;5029024;28;20599;-90
2023/12/18 06:23:50;;;;;;;23.90;11.48;;;8.80;99.90;;;;;;5022018;28;20086;-90
2023/12/18 06:26:16;;;;;;;21.65;10.93;;;8.80;99.90;;;;;;5024807;28;20045;-89
2023/12/18 06:28:42;;;;;;;24.70;11.38;;;8.70;99.90;;;;;;5021878;28;20053;-90
2023/12/18 06:31:07;;;;;;;20.40;10.60;;;8.80;99.90;;;;;;5022437;28;20063;-90
2023/12/18 06:33:33;;;;;;;28.63;11.45;;;8.80;99.90;;;;;;5021917;28;20364;-89
2023/12/18 06:36:00;;;;;;;23.15;11.07;;;8.70;99.90;;;;;;5024607;28;20041;-88
2023/12/18 06:38:26;;;;;;;25.90;11.07;;;8.80;99.90;;;;;;5024375;28;20048;-90
2023/12/18 06:40:52;;;;;;;23.85;10.88;;;8.70;99.90;;;;;;5033750;28;20554;-90
2023/12/18 06:43:18;;;;;;;23.02;10.90;;;8.80;99.90;;;;;;5025385;28;20124;-89
2023/12/18 06:45:43;;;;;;;23.58;9.82;;;8.90;99.90;;;;;;5016663;28;20129;-90
2023/12/18 06:48:09;;;;;;;26.05;10.85;;;8.80;99.90;;;;;;5035443;28;20120;-89
2023/12/18 06:50:35;;;;;;;22.98;10.05;;;8.90;99.90;;;;;;5024804;28;20130;-89
2023/12/18 06:53:00;;;;;;;22.92;10.13;;;8.90;99.90;;;;;;5037565;28;20193;-90
2023/12/18 06:55:27;;;;;;;26.10;10.02;;;8.90;99.90;;;;;;5023644;28;20129;-90
2023/12/18 06:57:53;;;;;;;22.58;10.48;;;8.80;99.90;;;;;;5022966;28;20033;-88
2023/12/18 07:00:19;;;;;;;20.30;9.77;;;8.90;99.90;;;;;;5018934;28;20036;-88
2023/12/18 07:02:45;;;;;;;19.63;10.93;;;8.90;99.90;;;;;;5023558;28;20683;-89
2023/12/18 07:05:13;;;;;;;26.52;10.55;;;8.90;99.90;;;;;;5036206;28;20049;-90
2023/12/18 07:07:38;;;;;;;21.15;10.13;;;8.80;99.90;;;;;;5015497;28;20565;-89
2023/12/18 07:10:04;;;;;;;24.50;10.07;;;8.80;99.90;;;;;;5018536;28;20029;-89
2023/12/18 07:12:30;;;;;;;22.15;10.38;;;8.80;99.90;;;;;;5017644;28;20041;-89
2023/12/18 07:14:56;;;;;;;23.20;10.25;;;8.80;99.90;;;;;;5019966;28;20045;-90
2023/12/18 07:17:21;;;;;;;23.35;10.48;;;8.90;99.90;;;;;;5021518;28;20041;-89
2023/12/18 07:19:47;;;;;;;25.70;10.48;;;8.90;99.90;;;;;;5019091;28;20119;-89
2023/12/18 07:22:13;;;;;;;25.02;11.23;;;8.80;99.90;;;;;;5051197;28;20114;-89
2023/12/18 07:24:39;;;;;;;30.20;10.80;;;8.90;99.90;;;;;;5041315;28;20084;-89
2023/12/18 07:27:04;;;;;;;24.88;10.05;;;8.90;99.90;;;;;;5026770;28;20033;-90
2023/12/18 07:29:30;;;;;;;20.13;10.10;;;9.00;99.90;;;;;;5022417;28;20123;-89
2023/12/18 07:31:56;;;;;;;24.48;11.20;;;8.90;99.90;;;;;;5021166;28;20057;-89
2023/12/18 07:34:22;;;;;;;26.15;11.45;;;8.80;99.90;;;;;;5023136;28;20185;-89
2023/12/18 07:36:48;;;;;;;25.92;10.63;;;8.80;99.90;;;;;;5022195;28;20048;-90
2023/12/18 07:39:13;;;;;;;22.80;10.55;;;8.90;99.90;;;;;;5025171;28;20294;-89
2023/12/18 07:41:39;;;;;;;27.38;10.52;;;8.80;99.90;;;;;;5024766;28;20069;-90
2023/12/18 07:44:05;;;;;;;20.20;11.75;;;8.80;99.90;;;;;;5033437;28;20041;-89
2023/12/18 07:46:30;;;;;;;28.15;11.55;;;8.90;99.90;;;;;;5016891;28;20174;-90
2023/12/18 07:48:56;;;;;;;23.90;11.98;;;8.80;99.90;;;;;;5025881;28;20045;-89
2023/12/18 07:51:22;;;;;;;25.83;12.38;;;8.80;99.90;;;;;;5020135;28;20037;-88
2023/12/18 07:53:48;;;;;;;28.67;12.80;;;8.90;99.90;;;;;;5036159;28;20045;-89
2023/12/18 07:56:13;;;;;;;24.50;12.05;;;8.90;99.90;;;;;;5037069;28;20068;-89
2023/12/18 07:58:40;;;;;;;22.90;13.10;;;8.70;99.90;;;;;;5022132;28;20093;-90
2023/12/18 08:01:06;;;;;;;25.60;12.30;;;8.80;99.90;;;;;;5035239;28;20048;-89
2023/12/18 08:03:32;;;;;;;25.67;12.80;;;8.80;99.90;;;;;;5026402;28;20807;-90
2023/12/18 08:05:58;;;;;;;22.30;12.52;;;8.70;99.90;;;;;;5025829;28;20357;-89
2023/12/18 08:08:23;;;;;;;26.17;13.50;;;8.70;99.90;;;;;;5012706;28;20048;-89
2023/12/18 08:10:49;;;;;;;27.08;12.55;;;8.70;99.90;;;;;;5034383;28;20049;-89
2023/12/18 08:13:15;;;;;;;23.73;13.90;;;8.70;99.90;;;;;;5021312;28;20483;-89
2023/12/18 08:15:41;;;;;;;25.58;12.82;;;8.70;99.90;;;;;;5034189;28;20103;-89
2023/12/18 08:18:08;;;;;;;27.80;14.00;;;8.80;99.90;;;;;;5019419;28;20041;-90
2023/12/18 08:20:33;;;;;;;27.90;13.55;;;8.80;99.90;;;;;;5039433;28;20104;-89
2023/12/18 08:22:59;;;;;;;27.58;13.93;;;8.80;99.90;;;;;;5047033;28;20638;-89
2023/12/18 08:25:25;;;;;;;23.65;13.13;;;8.80;99.90;;;;;;5036275;28;20161;-90
2023/12/18 08:27:51;;;;;;;25.95;14.32;;;8.80;99.90;;;;;;5015994;28;20045;-89
2023/12/18 08:30:16;;;;;;;26.80;13.65;;;8.80;99.90;;;;;;5017244;28;20057;-89
2023/12/18 08:32:42;;;;;;;31.75;13.82;;;8.70;99.90;;;;;;5023975;28;20057;-90
2023/12/18 08:35:08;;;;;;;27.88;14.25;;;8.80;99.90;;;;;;5034465;28;20361;-89
2023/12/18 08:37:34;;;;;;;25.90;13.48;;;8.70;99.90;;;;;;5033311;28;20491;-90
2023/12/18 08:39:59;;;;;;;30.48;15.25;;;8.70;99.90;;;;;;5018488;28;20044;-89
2023/12/18 08:42:26;;;;;;;24.48;14.57;;;8.80;99.90;;;;;;5019166;28;20104;-90
2023/12/18 08:44:52;;;;;;;30.15;14.43;;;8.80;99.90;;;;;;5016819;28;20144;-90
2023/12/18 08:47:18;;;;;;;28.88;14.48;;;8.90;99.90;;;;;;5024199;28;20575;-89
2023/12/18 08:49:43;;;;;;;29.65;14.05;;;8.90;99.90;;;;;;5035867;28;20345;-89
2023/12/18 08:52:09;;;;;;;29.75;14.60;;;8.80;99.90;;;;;;5037050;28;20482;-90
2023/12/18 08:54:35;;;;;;;29.67;14.18;;;8.80;99.90;;;;;;5022421;28;20152;-89
2023/12/18 08:57:00;;;;;;;25.25;14.85;;;8.80;99.90;;;;;;5019815;28;20496;-89
2023/12/18 08:59:26;;;;;;;29.50;14.30;;;8.80;99.90;;;;;;5018526;28;20076;-89
2023/12/18 09:01:52;;;;;;;28.92;14.02;;;8.80;99.90;;;;;;5039297;28;20104;-89
2023/12/18 09:04:18;;;;;;;35.13;14.52;;;8.80;99.90;;;;;;5038759;28;20048;-89
2023/12/18 09:06:43;;;;;;;26.40;13.63;;;8.90;99.90;;;;;;5020851;28;20253;-89
2023/12/18 09:09:09;;;;;;;29.95;14.65;;;8.80;99.90;;;;;;5034532;28;20309;-90
2023/12/18 09:11:35;;;;;;;30.40;14.73;;;8.90;99.90;;;;;;5033189;28;20036;-89
2023/12/18 09:14:04;;;;;;;28.80;14.77;;;8.80;99.90;;;;;;5030583;28;20060;-89
2023/12/18 09:16:30;;;;;;;32.05;16.17;;;9.00;99.90;;;;;;5015620;28;20594;-89
2023/12/18 09:18:56;;;;;;;30.10;15.77;;;8.80;99.90;;;;;;5043832;28;20036;-89
2023/12/18 09:21:21;;;;;;;28.13;16.38;;;9.00;99.90;;;;;;5030889;28;20124;-89
2023/12/18 09:23:47;;;;;;;29.67;16.33;;;9.00;99.90;;;;;;5035526;28;20344;-90
2023/12/18 09:26:14;;;;;;;30.50;16.48;;;9.00;99.90;;;;;;5023335;28;20497;-90
2023/12/18 09:28:40;;;;;;;28.23;17.00;;;8.90;99.90;;;;;;5015056;28;20591;-89
2023/12/18 09:31:06;;;;;;;29.50;17.40;;;8.90;99.90;;;;;;5013996;28;20056;-90
2023/12/18 09:33:35;;;;;;;32.40;16.63;;;8.90;99.90;;;;;;5025108;28;20049;-89
2023/12/18 09:36:01;;;;;;;28.58;17.00;;;8.90;99.90;;;;;;5016910;28;20088;-89
2023/12/18 09:38:27;;;;;;;32.88;17.48;;;8.90;99.90;;;;;;5013995;28;20059;-89
2023/12/18 09:40:53;;;;;;;38.90;17.55;;;8.80;99.90;;;;;;5021221;28;20106;-89
2023/12/18 09:43:20;;;;;;;31.27;17.75;;;8.90;99.90;;;;;;5031735;28;20045;-88
2023/12/18 09:45:47;;;;;;;31.52;18.58;;;8.80;99.90;;;;;;5020244;28;20511;-89
2023/12/18 09:48:15;;;;;;;38.75;18.48;;;8.80;99.90;;;;;;5019127;28;20045;-88
2023/12/18 09:50:43;;;;;;;31.83;17.45;;;8.90;99.90;;;;;;5022196;28;20060;-89
2023/12/18 09:53:12;;;;;;;30.58;17.23;;;8.90;99.90;;;;;;5022779;28;20061;-89
2023/12/18 09:55:39;;;;;;;33.85;18.35;;;8.90;99.90;;;;;;5020503;28;20049;-89
2023/12/18 09:58:06;;;;;;;37.35;17.63;;;8.80;99.90;;;;;;5024128;28;20068;-89
2023/12/18 10:00:32;;;;;;;30.88;17.60;;;8.90;99.90;;;;;;5036387;28;20043;-90
2023/12/18 10:02:59;;;;;;;31.67;18.40;;;8.80;99.90;;;;;;5039573;28;20065;-89
2023/12/18 10:05:26;;;;;;;27.90;17.67;;;8.90;99.90;;;;;;5037078;28;20487;-89
2023/12/18 10:07:53;;;;;;;34.20;17.35;;;9.00;99.90;;;;;;5036490;28;20045;-89
2023/12/18 10:10:19;;;;;;;38.28;18.73;;;9.10;99.90;;;;;;5035202;28;20188;-89
2023/12/18 10:12:48;;;;;;;35.78;17.42;;;9.10;99.90;;;;;;5037886;28;20592;-90
2023/12/18 10:15:14;;;;;;;29.40;17.58;;;9.20;99.90;;;;;;5025306;28;20510;-89
2023/12/18 10:17:43;;;;;;;33.25;18.48;;;9.00;99.90;;;;;;5018422;28;20351;-87
2023/12/18 10:20:11;;;;;;;32.20;17.88;;;9.10;99.90;;;;;;5033987;28;20583;-89
2023/12/18 10:22:40;;;;;;;35.83;17.98;;;9.10;99.90;;;;;;5018012;28;20037;-89
2023/12/18 10:25:06;;;;;;;36.88;17.45;;;9.20;99.90;;;;;;5035038;28;20056;-90
2023/12/18 10:27:32;;;;;;;33.90;18.08;;;9.10;99.90;;;;;;5051787;28;20033;-89
2023/12/18 10:29:58;;;;;;;26.55;17.15;;;9.20;99.90;;;;;;5034382;28;20041;-90
2023/12/18 10:32:27;;;;;;;41.50;17.05;;;9.20;99.90;;;;;;5024055;28;20128;-89
2023/12/18 10:34:55;;;;;;;33.90;16.95;;;9.20;99.90;;;;;;5024161;28;20503;-89
2023/12/18 10:37:25;;;;;;;33.50;16.45;;;9.30;99.90;;;;;;5041677;28;20037;-90
2023/12/18 10:39:53;;;;;;;39.92;18.08;;;9.20;99.90;;;;;;5022985;28;20038;-89
2023/12/18 10:42:31;;;;;;;33.15;17.00;;;9.30;99.90;;;;;;5020004;28;20037;-89
2023/12/18 10:45:01;;;;;;;32.45;16.38;;;9.30;99.90;;;;;;5035702;28;20383;-89
2023/12/18 10:47:28;;;;;;;34.60;16.80;;;9.30;99.90;;;;;;5021476;28;20100;-89
2023/12/18 10:49:56;;;;;;;34.25;18.27;;;9.40;99.90;;;;;;5031356;28;20037;-89
2023/12/18 10:52:24;;;;;;;29.80;15.77;;;9.40;99.90;;;;;;5021331;28;20036;-89
2023/12/18 10:54:52;;;;;;;28.92;15.30;;;9.50;99.90;;;;;;5039301;28;20231;-89
2023/12/18 10:57:20;;;;;;;38.38;16.73;;;9.40;99.90;;;;;;5019661;28;20048;-90
2023/12/18 10:59:49;;;;;;;30.23;17.73;;;9.30;99.90;;;;;;5036863;28;20032;-89
2023/12/18 11:02:16;;;;;;;30.85;16.17;;;9.30;99.90;;;;;;5021002;28;20067;-90
2023/12/18 11:04:48;;;;;;;33.00;16.77;;;9.50;99.90;;;;;;5028125;28;20102;-89
2023/12/18 11:07:17;;;;;;;30.42;17.65;;;9.30;99.90;;;;;;5015180;28;20439;-89
2023/12/18 11:09:47;;;;;;;34.13;17.60;;;9.30;99.90;;;;;;5024032;28;20041;-89
2023/12/18 11:12:15;;;;;;;31.60;16.88;;;9.40;99.90;;;;;;5023404;28;20044;-89
2023/12/18 11:15:00;;;;;;;31.55;16.80;;;9.30;99.90;;;;;;5023208;28;20377;-90
2023/12/18 11:17:36;;;;;;;27.33;15.93;;;9.40;99.90;;;;;;5021287;28;20073;-88
2023/12/18 11:20:27;;;;;;;32.83;17.73;;;9.30;99.90;;;;;;5018441;28;20373;-90
2023/12/18 11:22:56;;;;;;;27.98;16.40;;;9.40;99.90;;;;;;5040182;28;20038;-89
2023/12/18 11:25:27;;;;;;;29.98;16.60;;;9.40;99.90;;;;;;5026565;28;20036;-90
2023/12/18 11:27:53;;;;;;;34.47;16.90;;;9.40;99.90;;;;;;5033444;28;20041;-89
2023/12/18 11:30:28;;;;;;;33.05;17.05;;;9.40;99.90;;;;;;5036865;28;20047;-89
2023/12/18 11:32:55;;;;;;;;;;;9.40;99.90;;;;;;5021727;28;20048;-89
2023/12/18 11:35:27;;;;;;;30.63;17.45;;;9.50;99.90;;;;;;5030058;28;20368;-90
2023/12/18 11:37:59;;;;;;;31.33;17.45;;;9.30;99.90;;;;;;5017717;28;20037;-88
2023/12/18 11:40:36;;;;;;;25.20;16.73;;;9.40;99.90;;;;;;5022192;28;20128;-89
2023/12/18 11:43:09;;;;;;;33.13;17.23;;;9.40;99.90;;;;;;5042273;28;20043;-90
2023/12/18 11:45:46;;;;;;;35.75;16.48;;;9.40;99.90;;;;;;5021832;28;20045;-90
2023/12/18 11:48:17;;;;;;;30.55;16.88;;;9.50;99.90;;;;;;5050934;28;20417;-89
2023/12/18 11:50:42;;;;;;;28.48;16.73;;;9.40;99.90;;;;;;5037273;28;20045;-90
2023/12/18 11:53:24;;;;;;;32.05;17.70;;;9.40;99.90;;;;;;5019075;28;20044;-89
2023/12/18 11:55:54;;;;;;;28.52;16.27;;;9.40;99.90;;;;;;5022894;28;20141;-89
2023/12/18 11:58:24;;;;;;;31.92;16.90;;;9.40;99.90;;;;;;5049712;28;20159;-88
2023/12/18 12:00:50;;;;;;;33.72;18.10;;;9.40;99.90;;;;;;5020123;28;20068;-89
2023/12/18 12:03:17;;;;;;;30.20;16.25;;;9.40;99.90;;;;;;5017299;28;20700;-89
2023/12/18 12:05:45;;;;;;;35.53;16.92;;;9.40;99.90;;;;;;5021012;28;20045;-89
2023/12/18 12:08:11;;;;;;;37.30;17.30;;;9.40;99.90;;;;;;5038757;28;20048;-89
2023/12/18 12:10:47;;;;;;;30.10;16.38;;;9.40;99.90;;;;;;5034296;28;20124;-89
2023/12/18 12:13:20;;;;;;;26.67;16.92;;;9.40;99.90;;;;;;5037142;28;20110;-89
2023/12/18 12:15:55;;;;;;;30.20;17.73;;;9.40;99.90;;;;;;5023070;28;20080;-89
2023/12/18 12:18:28;;;;;;;29.60;16.67;;;9.30;99.90;;;;;;5040913;28;20164;-90
2023/12/18 12:20:55;;;;;;;31.15;16.58;;;9.40;99.90;;;;;;5017003;28;20037;-90
2023/12/18 12:23:21;;;;;;;31.58;17.20;;;9.30;99.90;;;;;;5034620;28;20357;-89
2023/12/18 12:25:48;;;;;;;28.30;17.20;;;9.40;99.90;;;;;;5021066;28;20098;-89
2023/12/18 12:28:18;;;;;;;31.10;16.67;;;9.30;99.90;;;;;;5021381;28;20041;-89
2023/12/18 12:30:44;;;;;;;29.50;16.02;;;9.50;99.90;;;;;;5019112;28;20041;-89
2023/12/18 12:33:10;;;;;;;27.13;16.60;;;9.50;99.90;;;;;;5032144;28;20054;-89
2023/12/18 12:35:36;;;;;;;26.77;17.02;;;9.40;99.90;;;;;;5022004;28;20036;-89